This is the latest recevied weather packets stored in our database for station/object DB0ROB-10. If no packets are shown the sender has not sent any weather packets the latest 10 day(s).
| Time | Temp. | Humidity | Pressure | Rain* | Wind** | Luminosity | Snow |
|---|---|---|---|---|---|---|---|
| 1777460470 | 15.56° C | 31% | 1019.5 hPa | - | - | - | - |
| 1777459569 | 15° C | 33% | 1019.4 hPa | - | - | - | - |
| 1777458669 | 15° C | 32% | 1019.5 hPa | - | - | - | - |
| 1777457769 | 15° C | 33% | 1019.5 hPa | - | - | - | - |
| 1777456869 | 13.89° C | 31% | 1019.2 hPa | - | - | - | - |
| 1777455968 | 13.89° C | 34% | 1019.5 hPa | - | - | - | - |
| 1777455068 | 14.44° C | 34% | 1019.4 hPa | - | - | - | - |
| 1777454168 | 13.89° C | 35% | 1019.2 hPa | - | - | - | - |
| 1777453268 | 12.78° C | 37% | 1019.3 hPa | - | - | - | - |
| 1777452367 | 13.33° C | 39% | 1019.3 hPa | - | - | - | - |
| 1777451467 | 13.33° C | 41% | 1019.2 hPa | - | - | - | - |
| 1777450567 | 12.78° C | 40% | 1019.3 hPa | - | - | - | - |
| 1777449667 | 12.22° C | 40% | 1019.2 hPa | - | - | - | - |
| 1777448775 | 12.22° C | 40% | 1019.1 hPa | - | - | - | - |
| 1777447874 | 11.67° C | 40% | 1019 hPa | - | - | - | - |
| 1777446974 | 15.56° C | 31% | 1018.9 hPa | - | - | - | - |
| 1777446074 | 16.11° C | 29% | 1018.7 hPa | - | - | - | - |
| 1777445174 | 16.11° C | 30% | 1018.7 hPa | - | - | - | - |
| 1777444273 | 16.11° C | 30% | 1018.7 hPa | - | - | - | - |
| 1777443373 | 15.56° C | 32% | 1018.5 hPa | - | - | - | - |
| 1777442473 | 12.78° C | 37% | 1018.5 hPa | - | - | - | - |
| 1777441572 | 10° C | 44% | 1018.6 hPa | - | - | - | - |
| 1777440672 | 9.44° C | 44% | 1018.5 hPa | - | - | - | - |
| 1777439772 | 8.89° C | 46% | 1018.2 hPa | - | - | - | - |
| 1777438871 | 8.33° C | 48% | 1018.1 hPa | - | - | - | - |
* Rain since midnight (hover to see other rain measurements)
** Current wind speed in m/s (hover to see current wind gust speed)